JBU2010 KLAX-KPBI
Flight info
| Callsign | JBU2010 |
|---|---|
| Flight time | N/A |
| Altitude | 35000 |
| Route | DOTSS2 CLEEE PKE HIDAT KA27O BRG TXO MDANO TXK ELD ORRKK/N0448F370 ARNNY ACORI VUUDU1 |
| Aircraft | A21N/M-SDE2E3FGHIRWXY/LB1 |
Departure
| Time | N/A |
|---|---|
| Airport | Los Angeles International Airport (KLAX) |
Arrival
| Time | 2026-04-08 14:40 |
|---|---|
| Airport | Palm Beach International Airport (KPBI) |
| Time | Latitude | Longitude | Altitude | Speed | Heading |
|---|---|---|---|---|---|
| 2026-04-08 12:49 | 32.91492 | -90.30307 | 35266 ft | 473 kts | 101° |
| 2026-04-08 12:50 | 32.90337 | -90.22604 | 35268 ft | 473 kts | 101° |
| 2026-04-08 12:50 | 32.89170 | -90.14886 | 35266 ft | 473 kts | 101° |
| 2026-04-08 12:51 | 32.87999 | -90.07178 | 35279 ft | 473 kts | 101° |
| 2026-04-08 12:51 | 32.86833 | -89.99512 | 35279 ft | 473 kts | 101° |
| 2026-04-08 12:52 | 32.85651 | -89.91796 | 35285 ft | 474 kts | 101° |
| 2026-04-08 12:52 | 32.84465 | -89.84073 | 35289 ft | 474 kts | 101° |
| 2026-04-08 12:53 | 32.83272 | -89.76348 | 35287 ft | 474 kts | 101° |
| 2026-04-08 12:53 | 32.82082 | -89.68693 | 35298 ft | 474 kts | 101° |
| 2026-04-08 12:54 | 32.81087 | -89.62274 | 35299 ft | 474 kts | 101° |
| 2026-04-08 12:54 | 32.79747 | -89.53682 | 35302 ft | 474 kts | 102° |
| 2026-04-08 12:55 | 32.78535 | -89.45954 | 35300 ft | 475 kts | 102° |
| 2026-04-08 12:55 | 32.77316 | -89.38231 | 35303 ft | 475 kts | 102° |
| 2026-04-08 12:56 | 32.76105 | -89.30555 | 35306 ft | 475 kts | 102° |
| 2026-04-08 12:56 | 32.74875 | -89.22835 | 35310 ft | 475 kts | 102° |
| 2026-04-08 12:57 | 32.73649 | -89.15157 | 35308 ft | 476 kts | 102° |
| 2026-04-08 12:57 | 32.72409 | -89.07434 | 35311 ft | 476 kts | 102° |
| 2026-04-08 12:58 | 32.71161 | -88.99704 | 35314 ft | 476 kts | 102° |
| 2026-04-08 12:58 | 32.69915 | -88.91980 | 35320 ft | 476 kts | 102° |
| 2026-04-08 12:59 | 32.68663 | -88.84253 | 35321 ft | 476 kts | 102° |
| 2026-04-08 12:59 | 32.67405 | -88.76532 | 35320 ft | 477 kts | 102° |
| 2026-04-08 13:00 | 32.66149 | -88.68858 | 35320 ft | 477 kts | 102° |
| 2026-04-08 13:00 | 32.64875 | -88.61107 | 35311 ft | 478 kts | 102° |
| 2026-04-08 13:01 | 32.63600 | -88.53368 | 35303 ft | 478 kts | 102° |
| 2026-04-08 13:01 | 32.62322 | -88.45618 | 35300 ft | 479 kts | 102° |
| 2026-04-08 13:02 | 32.61052 | -88.37917 | 35303 ft | 479 kts | 102° |
| 2026-04-08 13:02 | 32.59759 | -88.30163 | 35307 ft | 480 kts | 103° |
| 2026-04-08 13:03 | 32.58458 | -88.22390 | 35324 ft | 480 kts | 103° |
| 2026-04-08 13:03 | 32.57151 | -88.14614 | 35329 ft | 481 kts | 103° |
| 2026-04-08 13:04 | 32.56060 | -88.08148 | 35329 ft | 481 kts | 103° |
| 2026-04-08 13:04 | 32.54744 | -88.00369 | 35330 ft | 481 kts | 103° |
| 2026-04-08 13:05 | 32.53340 | -87.92606 | 35331 ft | 481 kts | 105° |
| 2026-04-08 13:05 | 32.51808 | -87.84877 | 35331 ft | 481 kts | 105° |
| 2026-04-08 13:06 | 32.50278 | -87.77206 | 35328 ft | 481 kts | 105° |
| 2026-04-08 13:06 | 32.48733 | -87.69463 | 35329 ft | 481 kts | 105° |
| 2026-04-08 13:07 | 32.47196 | -87.61803 | 35330 ft | 480 kts | 105° |
| 2026-04-08 13:07 | 32.45651 | -87.54109 | 35338 ft | 480 kts | 105° |
| 2026-04-08 13:08 | 32.44099 | -87.46399 | 35336 ft | 480 kts | 105° |
| 2026-04-08 13:08 | 32.42553 | -87.38762 | 35331 ft | 479 kts | 105° |
| 2026-04-08 13:09 | 32.40993 | -87.31088 | 35331 ft | 479 kts | 105° |
| 2026-04-08 13:09 | 32.39430 | -87.23420 | 35331 ft | 478 kts | 105° |
| 2026-04-08 13:10 | 32.37871 | -87.15773 | 35330 ft | 478 kts | 105° |
| 2026-04-08 13:10 | 32.36301 | -87.08124 | 35330 ft | 478 kts | 105° |
| 2026-04-08 13:11 | 32.34665 | -87.00546 | 35328 ft | 477 kts | 110° |
| 2026-04-08 13:11 | 32.31755 | -86.93560 | 35333 ft | 472 kts | 123° |
| 2026-04-08 13:12 | 32.26730 | -86.83624 | 35331 ft | 471 kts | 123° |
| 2026-04-08 13:13 | 32.23391 | -86.76946 | 35330 ft | 471 kts | 123° |
| 2026-04-08 13:13 | 32.20075 | -86.70317 | 35329 ft | 471 kts | 123° |
| 2026-04-08 13:14 | 32.16735 | -86.63650 | 35328 ft | 471 kts | 123° |
| 2026-04-08 13:14 | 32.13393 | -86.56995 | 35330 ft | 471 kts | 123° |
| 2026-04-08 13:15 | 32.10050 | -86.50341 | 35331 ft | 471 kts | 123° |
| 2026-04-08 13:15 | 32.06730 | -86.43744 | 35330 ft | 470 kts | 123° |
| 2026-04-08 13:16 | 32.03377 | -86.37118 | 35328 ft | 471 kts | 123° |
| 2026-04-08 13:16 | 32.00022 | -86.30483 | 35326 ft | 471 kts | 124° |
| 2026-04-08 13:17 | 31.96652 | -86.23834 | 35330 ft | 473 kts | 124° |
| 2026-04-08 13:17 | 31.93279 | -86.17191 | 35327 ft | 473 kts | 124° |
| 2026-04-08 13:18 | 31.89908 | -86.10552 | 35330 ft | 472 kts | 123° |
| 2026-04-08 13:18 | 31.86549 | -86.03950 | 35330 ft | 472 kts | 124° |
| 2026-04-08 13:19 | 31.83169 | -85.97323 | 35331 ft | 472 kts | 124° |
| 2026-04-08 13:19 | 31.79777 | -85.90701 | 35331 ft | 472 kts | 124° |
| 2026-04-08 13:20 | 31.76160 | -85.84341 | 35326 ft | 468 kts | 134° |
| 2026-04-08 13:20 | 31.71814 | -85.78641 | 35325 ft | 468 kts | 136° |
| 2026-04-08 13:21 | 31.67448 | -85.73004 | 35319 ft | 469 kts | 135° |
| 2026-04-08 13:21 | 31.63060 | -85.67312 | 35309 ft | 469 kts | 136° |
| 2026-04-08 13:22 | 31.58667 | -85.61620 | 35312 ft | 470 kts | 136° |
| 2026-04-08 13:22 | 31.54295 | -85.55966 | 35319 ft | 471 kts | 136° |
| 2026-04-08 13:23 | 31.49885 | -85.50270 | 35321 ft | 472 kts | 136° |
| 2026-04-08 13:23 | 31.45460 | -85.44558 | 35320 ft | 473 kts | 136° |
| 2026-04-08 13:24 | 31.41019 | -85.38836 | 35334 ft | 475 kts | 136° |
| 2026-04-08 13:24 | 31.36598 | -85.33150 | 35337 ft | 476 kts | 136° |
| 2026-04-08 13:25 | 31.32130 | -85.27413 | 35333 ft | 476 kts | 136° |
| 2026-04-08 13:25 | 31.27656 | -85.21674 | 35328 ft | 477 kts | 136° |
| 2026-04-08 13:26 | 31.23201 | -85.15967 | 35328 ft | 478 kts | 136° |
| 2026-04-08 13:26 | 31.18709 | -85.10221 | 35321 ft | 479 kts | 137° |
| 2026-04-08 13:27 | 31.14209 | -85.04474 | 35320 ft | 479 kts | 137° |
| 2026-04-08 13:27 | 31.09698 | -84.98722 | 35309 ft | 480 kts | 137° |
| 2026-04-08 13:28 | 31.05210 | -84.93008 | 35310 ft | 481 kts | 137° |
| 2026-04-08 13:28 | 31.00673 | -84.87242 | 35303 ft | 481 kts | 137° |
| 2026-04-08 13:29 | 30.96133 | -84.81481 | 35300 ft | 482 kts | 137° |
| 2026-04-08 13:29 | 30.91605 | -84.75743 | 35303 ft | 483 kts | 137° |
| 2026-04-08 13:30 | 30.87050 | -84.69981 | 35298 ft | 485 kts | 137° |
| 2026-04-08 13:30 | 30.82473 | -84.64197 | 35299 ft | 485 kts | 137° |
| 2026-04-08 13:31 | 30.77921 | -84.58455 | 35300 ft | 486 kts | 137° |
| 2026-04-08 13:31 | 30.73335 | -84.52676 | 35300 ft | 486 kts | 137° |
| 2026-04-08 13:32 | 30.68734 | -84.46896 | 35296 ft | 487 kts | 138° |
| 2026-04-08 13:32 | 30.64116 | -84.41098 | 35299 ft | 489 kts | 138° |
| 2026-04-08 13:33 | 30.59520 | -84.35334 | 35292 ft | 490 kts | 138° |
| 2026-04-08 13:33 | 30.54876 | -84.29514 | 35282 ft | 491 kts | 138° |
| 2026-04-08 13:34 | 30.50221 | -84.23690 | 35271 ft | 493 kts | 138° |
| 2026-04-08 13:34 | 30.45578 | -84.17896 | 35274 ft | 494 kts | 138° |
| 2026-04-08 13:35 | 30.40879 | -84.12042 | 35263 ft | 496 kts | 138° |
| 2026-04-08 13:35 | 30.35852 | -84.06667 | 35253 ft | 484 kts | 153° |
| 2026-04-08 13:36 | 30.30124 | -84.02767 | 35270 ft | 480 kts | 158° |
| 2026-04-08 13:36 | 30.24284 | -83.98962 | 35253 ft | 481 kts | 157° |
| 2026-04-08 13:37 | 30.18454 | -83.95108 | 35261 ft | 482 kts | 157° |
| 2026-04-08 13:37 | 30.12665 | -83.91269 | 35252 ft | 483 kts | 157° |
| 2026-04-08 13:38 | 30.06830 | -83.87413 | 35256 ft | 483 kts | 157° |
| 2026-04-08 13:38 | 30.00991 | -83.83562 | 35251 ft | 483 kts | 157° |
| 2026-04-08 13:39 | 29.95144 | -83.79708 | 35251 ft | 483 kts | 157° |
| 2026-04-08 13:39 | 29.89308 | -83.75866 | 35250 ft | 483 kts | 157° |
| 2026-04-08 13:40 | 29.83493 | -83.72042 | 35243 ft | 484 kts | 157° |
| 2026-04-08 13:40 | 29.77641 | -83.68203 | 35240 ft | 483 kts | 158° |
| 2026-04-08 13:41 | 29.71797 | -83.64369 | 35239 ft | 483 kts | 158° |
| 2026-04-08 13:41 | 29.65956 | -83.60550 | 35239 ft | 483 kts | 158° |
| 2026-04-08 13:42 | 29.60140 | -83.56748 | 35232 ft | 483 kts | 158° |
| 2026-04-08 13:42 | 29.54288 | -83.52932 | 35222 ft | 483 kts | 158° |
| 2026-04-08 13:43 | 29.48441 | -83.49116 | 35219 ft | 482 kts | 158° |
| 2026-04-08 13:43 | 29.42628 | -83.45329 | 35222 ft | 483 kts | 158° |
| 2026-04-08 13:44 | 29.36780 | -83.41524 | 35215 ft | 483 kts | 158° |
| 2026-04-08 13:44 | 29.30926 | -83.37720 | 35210 ft | 484 kts | 158° |
| 2026-04-08 13:45 | 29.25124 | -83.33882 | 35206 ft | 487 kts | 154° |
| 2026-04-08 13:45 | 29.19621 | -83.29213 | 35211 ft | 492 kts | 150° |
| 2026-04-08 13:46 | 29.14158 | -83.24468 | 35209 ft | 492 kts | 150° |
| 2026-04-08 13:46 | 29.08667 | -83.19765 | 35203 ft | 492 kts | 151° |
| 2026-04-08 13:47 | 29.03215 | -83.15109 | 35201 ft | 492 kts | 151° |
| 2026-04-08 13:47 | 28.97721 | -83.10426 | 35201 ft | 492 kts | 151° |
| 2026-04-08 13:48 | 28.92218 | -83.05738 | 35195 ft | 493 kts | 151° |
| 2026-04-08 13:48 | 28.86717 | -83.01053 | 35190 ft | 493 kts | 151° |
| 2026-04-08 13:49 | 28.81237 | -82.96395 | 35183 ft | 493 kts | 151° |
| 2026-04-08 13:49 | 28.75719 | -82.91709 | 35181 ft | 494 kts | 152° |
| 2026-04-08 13:50 | 28.70195 | -82.87034 | 35180 ft | 494 kts | 152° |
| 2026-04-08 13:50 | 28.64710 | -82.82395 | 35173 ft | 494 kts | 152° |
| 2026-04-08 13:51 | 28.59184 | -82.77717 | 35170 ft | 494 kts | 152° |
| 2026-04-08 13:51 | 28.53645 | -82.73031 | 35172 ft | 495 kts | 152° |
| 2026-04-08 13:52 | 28.48141 | -82.68394 | 35161 ft | 495 kts | 152° |
| 2026-04-08 13:52 | 28.42592 | -82.63730 | 35162 ft | 496 kts | 152° |
| 2026-04-08 13:53 | 28.37033 | -82.59059 | 35160 ft | 497 kts | 152° |
| 2026-04-08 13:53 | 28.31511 | -82.54422 | 35152 ft | 497 kts | 152° |
| 2026-04-08 13:54 | 28.25955 | -82.49760 | 35151 ft | 497 kts | 152° |
| 2026-04-08 13:54 | 28.20374 | -82.45081 | 35138 ft | 497 kts | 152° |
| 2026-04-08 13:55 | 28.14802 | -82.40415 | 35139 ft | 498 kts | 152° |
| 2026-04-08 13:55 | 28.09214 | -82.35748 | 35139 ft | 499 kts | 152° |
| 2026-04-08 13:56 | 28.04532 | -82.31947 | 35128 ft | 493 kts | 157° |
| 2026-04-08 13:56 | 28.00514 | -82.29762 | 35128 ft | 475 kts | 171° |
| 2026-04-08 13:56 | 27.97371 | -82.28653 | 35132 ft | 471 kts | 174° |
| 2026-04-08 13:57 | 27.92128 | -82.26949 | 35131 ft | 471 kts | 174° |
| 2026-04-08 13:57 | 27.84794 | -82.24498 | 35134 ft | 472 kts | 174° |
| 2026-04-08 13:58 | 27.79608 | -82.22744 | 35129 ft | 473 kts | 174° |
| 2026-04-08 13:58 | 27.73250 | -82.20601 | 35130 ft | 473 kts | 174° |
| 2026-04-08 13:59 | 27.66970 | -82.18477 | 34504 ft | 467 kts | 174° |
| 2026-04-08 13:59 | 27.63837 | -82.17423 | 33630 ft | 470 kts | 174° |
| 2026-04-08 13:59 | 27.60710 | -82.16374 | 32855 ft | 471 kts | 173° |
| 2026-04-08 13:59 | 27.57558 | -82.15332 | 32081 ft | 471 kts | 173° |
| 2026-04-08 14:00 | 27.54397 | -82.14297 | 31295 ft | 473 kts | 173° |
| 2026-04-08 14:00 | 27.51245 | -82.13264 | 30535 ft | 473 kts | 173° |
| 2026-04-08 14:00 | 27.48117 | -82.12237 | 29718 ft | 474 kts | 172° |
| 2026-04-08 14:00 | 27.44944 | -82.11196 | 28821 ft | 476 kts | 172° |
| 2026-04-08 14:01 | 27.41762 | -82.10148 | 27944 ft | 477 kts | 171° |
| 2026-04-08 14:01 | 27.38573 | -82.09101 | 27121 ft | 476 kts | 171° |
| 2026-04-08 14:01 | 27.35398 | -82.08058 | 26301 ft | 474 kts | 170° |
| 2026-04-08 14:01 | 27.32250 | -82.07016 | 25753 ft | 464 kts | 169° |
| 2026-04-08 14:02 | 27.29240 | -82.06001 | 25436 ft | 449 kts | 169° |
| 2026-04-08 14:02 | 27.26257 | -82.04996 | 25190 ft | 433 kts | 169° |
| 2026-04-08 14:02 | 27.20703 | -82.03137 | 24790 ft | 411 kts | 169° |
| 2026-04-08 14:03 | 27.17957 | -82.02225 | 24609 ft | 411 kts | 169° |
| 2026-04-08 14:03 | 27.15222 | -82.01314 | 24441 ft | 409 kts | 169° |
| 2026-04-08 14:03 | 27.12496 | -82.00405 | 24263 ft | 408 kts | 169° |
| 2026-04-08 14:03 | 27.09780 | -81.99501 | 24103 ft | 406 kts | 169° |
| 2026-04-08 14:04 | 27.07065 | -81.98585 | 24066 ft | 407 kts | 167° |
| 2026-04-08 14:04 | 27.04444 | -81.97321 | 24072 ft | 414 kts | 155° |
| 2026-04-08 14:04 | 27.02109 | -81.95399 | 23843 ft | 417 kts | 141° |
| 2026-04-08 14:04 | 27.00152 | -81.92956 | 23053 ft | 424 kts | 133° |
| 2026-04-08 14:05 | 26.98345 | -81.90418 | 22607 ft | 416 kts | 132° |
| 2026-04-08 14:05 | 26.96540 | -81.87883 | 22299 ft | 415 kts | 133° |
| 2026-04-08 14:05 | 26.94720 | -81.85378 | 22031 ft | 413 kts | 133° |
| 2026-04-08 14:05 | 26.92896 | -81.82895 | 21792 ft | 411 kts | 133° |
| 2026-04-08 14:06 | 26.91075 | -81.80431 | 21567 ft | 410 kts | 133° |
| 2026-04-08 14:06 | 26.89257 | -81.77972 | 21348 ft | 408 kts | 133° |
| 2026-04-08 14:06 | 26.87449 | -81.75528 | 21129 ft | 406 kts | 133° |
| 2026-04-08 14:06 | 26.85644 | -81.73097 | 20916 ft | 405 kts | 134° |
| 2026-04-08 14:07 | 26.83822 | -81.70698 | 20702 ft | 403 kts | 134° |
| 2026-04-08 14:07 | 26.81997 | -81.68315 | 20488 ft | 402 kts | 134° |
| 2026-04-08 14:07 | 26.80185 | -81.65947 | 20274 ft | 401 kts | 134° |
| 2026-04-08 14:07 | 26.78396 | -81.63603 | 20064 ft | 400 kts | 134° |
| 2026-04-08 14:08 | 26.76600 | -81.61247 | 19854 ft | 398 kts | 134° |
| 2026-04-08 14:08 | 26.74798 | -81.58888 | 19644 ft | 397 kts | 134° |
| 2026-04-08 14:08 | 26.73012 | -81.56553 | 19438 ft | 395 kts | 134° |
| 2026-04-08 14:08 | 26.71229 | -81.54218 | 19228 ft | 394 kts | 134° |
| 2026-04-08 14:09 | 26.69492 | -81.51844 | 19064 ft | 395 kts | 128° |
| 2026-04-08 14:09 | 26.68287 | -81.49085 | 19047 ft | 400 kts | 108° |
| 2026-04-08 14:09 | 26.67874 | -81.46014 | 18773 ft | 398 kts | 90° |
| 2026-04-08 14:09 | 26.68277 | -81.42957 | 18085 ft | 398 kts | 73° |
| 2026-04-08 14:10 | 26.69143 | -81.40017 | 17482 ft | 396 kts | 70° |
| 2026-04-08 14:10 | 26.69999 | -81.37104 | 16956 ft | 392 kts | 72° |
| 2026-04-08 14:10 | 26.70774 | -81.34191 | 16431 ft | 388 kts | 74° |
| 2026-04-08 14:10 | 26.71483 | -81.31333 | 15967 ft | 384 kts | 75° |
| 2026-04-08 14:11 | 26.72169 | -81.28456 | 15452 ft | 379 kts | 75° |
| 2026-04-08 14:11 | 26.72837 | -81.25618 | 14929 ft | 375 kts | 75° |
| 2026-04-08 14:11 | 26.73496 | -81.22803 | 14441 ft | 371 kts | 75° |
| 2026-04-08 14:11 | 26.74143 | -81.20030 | 13968 ft | 366 kts | 75° |
| 2026-04-08 14:12 | 26.74779 | -81.17298 | 13635 ft | 360 kts | 76° |
| 2026-04-08 14:12 | 26.75404 | -81.14594 | 13322 ft | 357 kts | 76° |
| 2026-04-08 14:12 | 26.76023 | -81.11941 | 12929 ft | 357 kts | 76° |
| 2026-04-08 14:12 | 26.76645 | -81.09256 | 12596 ft | 355 kts | 76° |
| 2026-04-08 14:13 | 26.77261 | -81.06602 | 12316 ft | 350 kts | 76° |
| 2026-04-08 14:13 | 26.77869 | -81.03984 | 12057 ft | 345 kts | 76° |
| 2026-04-08 14:13 | 26.78457 | -81.01393 | 11801 ft | 341 kts | 78° |
| 2026-04-08 14:13 | 26.78751 | -80.98769 | 11565 ft | 339 kts | 87° |
| 2026-04-08 14:14 | 26.78865 | -80.96186 | 11355 ft | 326 kts | 88° |
| 2026-04-08 14:14 | 26.79059 | -80.91298 | 10894 ft | 305 kts | 88° |
| 2026-04-08 14:14 | 26.79159 | -80.88961 | 10444 ft | 303 kts | 88° |
| 2026-04-08 14:15 | 26.79261 | -80.86620 | 10083 ft | 298 kts | 87° |
| 2026-04-08 14:15 | 26.79358 | -80.84324 | 9808 ft | 291 kts | 87° |
| 2026-04-08 14:15 | 26.79454 | -80.82080 | 9568 ft | 285 kts | 88° |
| 2026-04-08 14:15 | 26.79547 | -80.79885 | 9349 ft | 280 kts | 88° |
| 2026-04-08 14:16 | 26.79632 | -80.77726 | 9136 ft | 274 kts | 88° |
| 2026-04-08 14:16 | 26.79492 | -80.75628 | 8914 ft | 269 kts | 104° |
| 2026-04-08 14:16 | 26.78909 | -80.73669 | 8573 ft | 268 kts | 110° |
| 2026-04-08 14:16 | 26.78238 | -80.71720 | 8197 ft | 269 kts | 110° |
| 2026-04-08 14:17 | 26.77566 | -80.69760 | 7827 ft | 270 kts | 110° |
| 2026-04-08 14:17 | 26.76899 | -80.67791 | 7454 ft | 271 kts | 110° |
| 2026-04-08 14:17 | 26.76234 | -80.65813 | 7084 ft | 272 kts | 109° |
| 2026-04-08 14:17 | 26.75569 | -80.63826 | 6715 ft | 273 kts | 109° |
| 2026-04-08 14:18 | 26.74903 | -80.61831 | 6350 ft | 273 kts | 109° |
| 2026-04-08 14:18 | 26.74240 | -80.59841 | 5999 ft | 271 kts | 109° |
| 2026-04-08 14:18 | 26.73592 | -80.57912 | 5755 ft | 265 kts | 110° |
| 2026-04-08 14:18 | 26.72928 | -80.56017 | 5551 ft | 258 kts | 110° |
| 2026-04-08 14:19 | 26.72278 | -80.54170 | 5352 ft | 252 kts | 110° |
| 2026-04-08 14:19 | 26.71646 | -80.52370 | 5157 ft | 245 kts | 110° |
| 2026-04-08 14:19 | 26.71019 | -80.50580 | 4999 ft | 254 kts | 109° |
| 2026-04-08 14:19 | 26.70401 | -80.48793 | 4963 ft | 238 kts | 109° |
| 2026-04-08 14:20 | 26.69989 | -80.47066 | 4924 ft | 226 kts | 95° |
| 2026-04-08 14:20 | 26.69878 | -80.45326 | 4661 ft | 223 kts | 91° |
| 2026-04-08 14:20 | 26.69809 | -80.43630 | 4450 ft | 213 kts | 91° |
| 2026-04-08 14:20 | 26.69716 | -80.42021 | 4250 ft | 202 kts | 94° |
| 2026-04-08 14:21 | 26.69619 | -80.40475 | 4021 ft | 198 kts | 91° |
| 2026-04-08 14:21 | 26.69550 | -80.38971 | 3887 ft | 194 kts | 91° |
| 2026-04-08 14:21 | 26.69483 | -80.37471 | 3513 ft | 192 kts | 90° |
| 2026-04-08 14:21 | 26.69418 | -80.35978 | 3144 ft | 191 kts | 90° |
| 2026-04-08 14:22 | 26.69353 | -80.34494 | 2998 ft | 191 kts | 90° |
| 2026-04-08 14:22 | 26.69289 | -80.33003 | 2981 ft | 191 kts | 90° |
| 2026-04-08 14:22 | 26.69223 | -80.31517 | 2986 ft | 191 kts | 90° |
| 2026-04-08 14:22 | 26.69160 | -80.30057 | 2992 ft | 191 kts | 90° |
| 2026-04-08 14:23 | 26.69095 | -80.28565 | 2996 ft | 192 kts | 90° |
| 2026-04-08 14:23 | 26.69030 | -80.27077 | 2881 ft | 191 kts | 90° |
| 2026-04-08 14:23 | 26.68967 | -80.25594 | 2668 ft | 191 kts | 90° |
| 2026-04-08 14:23 | 26.68901 | -80.24107 | 2415 ft | 192 kts | 90° |
| 2026-04-08 14:24 | 26.68835 | -80.22610 | 2153 ft | 192 kts | 90° |
| 2026-04-08 14:24 | 26.68771 | -80.21135 | 1903 ft | 185 kts | 90° |
| 2026-04-08 14:24 | 26.68711 | -80.19765 | 1723 ft | 168 kts | 89° |
| 2026-04-08 14:24 | 26.68656 | -80.18546 | 1499 ft | 146 kts | 88° |
| 2026-04-08 14:25 | 26.68614 | -80.17502 | 1274 ft | 135 kts | 88° |
| 2026-04-08 14:25 | 26.68569 | -80.16437 | 1086 ft | 135 kts | 88° |
| 2026-04-08 14:25 | 26.68523 | -80.15390 | 912 ft | 134 kts | 88° |
| 2026-04-08 14:25 | 26.68478 | -80.14363 | 740 ft | 134 kts | 87° |
| 2026-04-08 14:26 | 26.68433 | -80.13324 | 560 ft | 135 kts | 88° |
| 2026-04-08 14:26 | 26.68387 | -80.12283 | 365 ft | 133 kts | 92° |
| 2026-04-08 14:26 | 26.68337 | -80.11252 | 203 ft | 132 kts | 86° |
| 2026-04-08 14:26 | 26.68292 | -80.10223 | 65 ft | 132 kts | 89° |
| 2026-04-08 14:27 | 26.68254 | -80.09173 | 324 ft | 142 kts | 88° |
| 2026-04-08 14:27 | 26.68233 | -80.08052 | 1253 ft | 151 kts | 86° |
| 2026-04-08 14:27 | 26.68187 | -80.06805 | 1983 ft | 168 kts | 88° |
| 2026-04-08 14:27 | 26.68147 | -80.05450 | 2529 ft | 181 kts | 84° |
| 2026-04-08 14:28 | 26.68601 | -80.04093 | 2946 ft | 201 kts | 51° |
| 2026-04-08 14:28 | 26.69746 | -80.03134 | 3095 ft | 216 kts | 23° |
| 2026-04-08 14:28 | 26.71244 | -80.02956 | 3061 ft | 223 kts | 353° |
| 2026-04-08 14:28 | 26.72668 | -80.03701 | 3040 ft | 232 kts | 322° |
| 2026-04-08 14:29 | 26.73611 | -80.05182 | 3031 ft | 239 kts | 297° |
| 2026-04-08 14:29 | 26.74237 | -80.06943 | 3214 ft | 254 kts | 293° |
| 2026-04-08 14:29 | 26.74868 | -80.08875 | 3781 ft | 272 kts | 292° |
| 2026-04-08 14:29 | 26.75529 | -80.10891 | 4631 ft | 277 kts | 292° |
| 2026-04-08 14:30 | 26.76206 | -80.12930 | 5395 ft | 280 kts | 292° |
| 2026-04-08 14:30 | 26.76895 | -80.14956 | 5800 ft | 282 kts | 291° |
| 2026-04-08 14:30 | 26.77618 | -80.17013 | 5963 ft | 283 kts | 292° |
| 2026-04-08 14:30 | 26.78341 | -80.19058 | 6003 ft | 282 kts | 292° |
| 2026-04-08 14:31 | 26.79068 | -80.21110 | 6019 ft | 283 kts | 292° |
| 2026-04-08 14:31 | 26.79782 | -80.23152 | 6011 ft | 284 kts | 292° |
| 2026-04-08 14:31 | 26.80474 | -80.25160 | 5992 ft | 266 kts | 292° |
| 2026-04-08 14:31 | 26.81130 | -80.27040 | 5970 ft | 252 kts | 293° |
| 2026-04-08 14:32 | 26.81631 | -80.28857 | 5953 ft | 234 kts | 278° |
| 2026-04-08 14:32 | 26.81616 | -80.30617 | 5966 ft | 225 kts | 259° |
| 2026-04-08 14:32 | 26.81127 | -80.32232 | 5656 ft | 221 kts | 239° |
| 2026-04-08 14:32 | 26.80204 | -80.33596 | 5138 ft | 220 kts | 221° |
| 2026-04-08 14:33 | 26.78953 | -80.34572 | 4682 ft | 219 kts | 202° |
| 2026-04-08 14:33 | 26.77514 | -80.35077 | 4263 ft | 216 kts | 184° |
| 2026-04-08 14:33 | 26.76025 | -80.35120 | 3873 ft | 213 kts | 172° |
| 2026-04-08 14:33 | 26.74551 | -80.35015 | 3476 ft | 212 kts | 172° |
| 2026-04-08 14:34 | 26.73172 | -80.34570 | 3116 ft | 205 kts | 146° |
| 2026-04-08 14:34 | 26.71958 | -80.33753 | 3001 ft | 203 kts | 143° |
| 2026-04-08 14:34 | 26.70762 | -80.32905 | 2987 ft | 204 kts | 142° |
| 2026-04-08 14:34 | 26.69714 | -80.31899 | 2981 ft | 195 kts | 116° |
| 2026-04-08 14:35 | 26.69255 | -80.30502 | 2994 ft | 191 kts | 97° |
| 2026-04-08 14:35 | 26.69105 | -80.29043 | 3001 ft | 191 kts | 90° |
| 2026-04-08 14:35 | 26.69050 | -80.27553 | 2932 ft | 191 kts | 90° |
| 2026-04-08 14:35 | 26.68988 | -80.26113 | 2783 ft | 178 kts | 90° |
| 2026-04-08 14:36 | 26.68929 | -80.24765 | 2567 ft | 170 kts | 90° |
| 2026-04-08 14:36 | 26.68874 | -80.23488 | 2354 ft | 157 kts | 89° |
| 2026-04-08 14:36 | 26.68825 | -80.22369 | 2147 ft | 135 kts | 89° |
| 2026-04-08 14:36 | 26.68783 | -80.21327 | 1945 ft | 136 kts | 88° |
| 2026-04-08 14:37 | 26.68734 | -80.20276 | 1759 ft | 135 kts | 88° |
| 2026-04-08 14:37 | 26.68690 | -80.19230 | 1576 ft | 135 kts | 88° |
| 2026-04-08 14:37 | 26.68645 | -80.18187 | 1388 ft | 136 kts | 89° |
| 2026-04-08 14:37 | 26.68599 | -80.17133 | 1207 ft | 136 kts | 89° |
| 2026-04-08 14:38 | 26.68554 | -80.16088 | 1031 ft | 136 kts | 88° |
| 2026-04-08 14:38 | 26.68507 | -80.15032 | 847 ft | 136 kts | 89° |
| 2026-04-08 14:38 | 26.68461 | -80.13978 | 671 ft | 136 kts | 89° |
| 2026-04-08 14:38 | 26.68416 | -80.12926 | 484 ft | 134 kts | 89° |
| 2026-04-08 14:39 | 26.68370 | -80.11875 | 306 ft | 136 kts | 89° |
| 2026-04-08 14:39 | 26.68320 | -80.10817 | 97 ft | 136 kts | 90° |
| 2026-04-08 14:39 | 26.68272 | -80.09791 | 27 ft | 122 kts | 90° |
| 2026-04-08 14:39 | 26.68242 | -80.09037 | 27 ft | 62 kts | 92° |
| 2026-04-08 14:40 | 26.68242 | -80.08884 | 27 ft | 5 kts | 66° |
| 2026-04-08 14:40 | 26.68274 | -80.08855 | 27 ft | 8 kts | 19° |
| 2026-04-08 14:40 | 26.68340 | -80.08777 | 27 ft | 18 kts | 95° |
| 2026-04-08 14:40 | 26.68427 | -80.08736 | 27 ft | 19 kts | 298° |
| 2026-04-08 14:41 | 26.68543 | -80.08768 | 27 ft | 19 kts | 358° |
| 2026-04-08 14:41 | 26.68610 | -80.08856 | 27 ft | 11 kts | 251° |
| 2026-04-08 14:41 | 26.68605 | -80.08878 | 27 ft | 0 kts | 261° |
| 2026-04-08 14:41 | 26.68605 | -80.08879 | 27 ft | 0 kts | 261° |